sensor_id;sensor_type;location;lat;lon;timestamp;pressure;altitude;pressure_sealevel;temperature;humidity
13719;BME280;6931;51.100;17.068;2024-03-23T00:53:47;99338.59;;;10.85;93.78
13719;BME280;6931;51.100;17.068;2024-03-23T00:56:13;99313.41;;;10.65;94.18
13719;BME280;6931;51.100;17.068;2024-03-23T00:58:39;99318.72;;;10.56;96.13
13719;BME280;6931;51.100;17.068;2024-03-23T01:01:06;99336.44;;;10.69;95.90
13719;BME280;6931;51.100;17.068;2024-03-23T01:03:32;99323.78;;;10.65;95.99
13719;BME280;6931;51.100;17.068;2024-03-23T01:06:01;99338.28;;;10.79;94.66
13719;BME280;6931;51.100;17.068;2024-03-23T01:08:27;99333.59;;;10.73;94.23
13719;BME280;6931;51.100;17.068;2024-03-23T01:10:56;99318.09;;;10.72;94.14
13719;BME280;6931;51.100;17.068;2024-03-23T01:13:22;99300.75;;;10.61;93.03
13719;BME280;6931;51.100;17.068;2024-03-23T01:15:51;99308.91;;;10.75;92.83
13719;BME280;6931;51.100;17.068;2024-03-23T01:18:18;99305.03;;;10.65;92.56
13719;BME280;6931;51.100;17.068;2024-03-23T01:20:44;99265.78;;;10.29;92.59
13719;BME280;6931;51.100;17.068;2024-03-23T01:23:10;99279.03;;;10.49;92.97
13719;BME280;6931;51.100;17.068;2024-03-23T01:25:36;99267.78;;;10.56;92.20
13719;BME280;6931;51.100;17.068;2024-03-23T01:28:01;99295.00;;;10.71;92.07
13719;BME280;6931;51.100;17.068;2024-03-23T01:30:27;99283.03;;;10.74;91.42
13719;BME280;6931;51.100;17.068;2024-03-23T01:32:52;99273.91;;;10.70;91.26
13719;BME280;6931;51.100;17.068;2024-03-23T01:35:18;99256.13;;;10.64;90.79
13719;BME280;6931;51.100;17.068;2024-03-23T01:37:43;99249.44;;;10.58;90.76
13719;BME280;6931;51.100;17.068;2024-03-23T01:40:10;99250.88;;;10.70;90.87
13719;BME280;6931;51.100;17.068;2024-03-23T01:42:36;99250.97;;;10.63;90.99
13719;BME280;6931;51.100;17.068;2024-03-23T01:45:02;99230.38;;;10.57;90.71
13719;BME280;6931;51.100;17.068;2024-03-23T01:47:32;99237.22;;;10.52;91.94
13719;BME280;6931;51.100;17.068;2024-03-23T01:49:59;99232.72;;;10.58;90.94
13719;BME280;6931;51.100;17.068;2024-03-23T01:52:25;99234.38;;;10.56;90.97
13719;BME280;6931;51.100;17.068;2024-03-23T01:54:51;99200.72;;;10.16;91.74
13719;BME280;6931;51.100;17.068;2024-03-23T01:57:17;99212.41;;;10.34;91.32
13719;BME280;6931;51.100;17.068;2024-03-23T01:59:42;99223.28;;;10.52;90.10
13719;BME280;6931;51.100;17.068;2024-03-23T02:02:08;99223.03;;;10.43;90.26
13719;BME280;6931;51.100;17.068;2024-03-23T02:04:34;99235.94;;;10.57;89.36
13719;BME280;6931;51.100;17.068;2024-03-23T02:07:00;99082.66;;;9.64;89.59
13719;BME280;6931;51.100;17.068;2024-03-23T02:09:25;99228.81;;;10.56;90.37
13719;BME280;6931;51.100;17.068;2024-03-23T02:11:51;99205.63;;;10.35;89.38
13719;BME280;6931;51.100;17.068;2024-03-23T02:14:17;99217.13;;;10.37;91.00
13719;BME280;6931;51.100;17.068;2024-03-23T02:16:43;99212.56;;;10.51;89.59
13719;BME280;6931;51.100;17.068;2024-03-23T02:19:08;99208.25;;;10.46;89.74
13719;BME280;6931;51.100;17.068;2024-03-23T02:21:34;99206.16;;;10.54;89.54
13719;BME280;6931;51.100;17.068;2024-03-23T02:24:00;99198.59;;;10.54;88.96
13719;BME280;6931;51.100;17.068;2024-03-23T02:26:26;99204.53;;;10.56;89.50
13719;BME280;6931;51.100;17.068;2024-03-23T02:28:52;99188.22;;;10.55;89.06
13719;BME280;6931;51.100;17.068;2024-03-23T02:31:17;99184.66;;;10.54;89.30
13719;BME280;6931;51.100;17.068;2024-03-23T02:33:43;99158.06;;;10.26;90.70
13719;BME280;6931;51.100;17.068;2024-03-23T02:36:09;99178.16;;;10.37;90.63
13719;BME280;6931;51.100;17.068;2024-03-23T02:38:35;99183.06;;;10.53;89.32
13719;BME280;6931;51.100;17.068;2024-03-23T02:41:03;99136.50;;;10.04;90.36
13719;BME280;6931;51.100;17.068;2024-03-23T02:43:29;99174.03;;;10.22;90.84
13719;BME280;6931;51.100;17.068;2024-03-23T02:45:54;99175.38;;;10.37;89.17
13719;BME280;6931;51.100;17.068;2024-03-23T02:48:20;99170.75;;;10.27;89.53
13719;BME280;6931;51.100;17.068;2024-03-23T02:50:46;99167.19;;;10.27;90.37
13719;BME280;6931;51.100;17.068;2024-03-23T02:53:12;99145.72;;;10.27;89.36
13719;BME280;6931;51.100;17.068;2024-03-23T02:55:37;99138.31;;;10.17;89.74
13719;BME280;6931;51.100;17.068;2024-03-23T02:58:03;99159.16;;;10.32;89.44
13719;BME280;6931;51.100;17.068;2024-03-23T03:00:29;99116.72;;;10.25;89.38
13719;BME280;6931;51.100;17.068;2024-03-23T03:02:54;99148.16;;;10.49;89.51
13719;BME280;6931;51.100;17.068;2024-03-23T03:05:21;99123.25;;;10.38;89.80
13719;BME280;6931;51.100;17.068;2024-03-23T03:07:47;99128.41;;;10.39;89.21
13719;BME280;6931;51.100;17.068;2024-03-23T03:10:12;99129.16;;;10.17;90.31
13719;BME280;6931;51.100;17.068;2024-03-23T03:12:38;99032.47;;;9.71;90.00
13719;BME280;6931;51.100;17.068;2024-03-23T03:15:04;99142.69;;;10.42;90.16
13719;BME280;6931;51.100;17.068;2024-03-23T03:17:30;99138.22;;;10.48;90.00
13719;BME280;6931;51.100;17.068;2024-03-23T03:19:56;99124.53;;;10.33;89.61
13719;BME280;6931;51.100;17.068;2024-03-23T03:22:23;99112.19;;;10.34;90.54
13719;BME280;6931;51.100;17.068;2024-03-23T03:24:49;99116.09;;;10.41;90.35
13719;BME280;6931;51.100;17.068;2024-03-23T03:27:14;99103.59;;;9.99;91.23
13719;BME280;6931;51.100;17.068;2024-03-23T03:29:40;99115.03;;;10.31;91.12
13719;BME280;6931;51.100;17.068;2024-03-23T03:32:06;99085.84;;;10.16;90.81
13719;BME280;6931;51.100;17.068;2024-03-23T03:34:32;99107.59;;;10.24;90.72
13719;BME280;6931;51.100;17.068;2024-03-23T03:36:58;99103.34;;;10.39;89.98
13719;BME280;6931;51.100;17.068;2024-03-23T03:39:24;99073.34;;;10.27;89.55
13719;BME280;6931;51.100;17.068;2024-03-23T03:41:49;99096.94;;;10.43;90.80
13719;BME280;6931;51.100;17.068;2024-03-23T03:44:16;99083.72;;;10.23;90.21
13719;BME280;6931;51.100;17.068;2024-03-23T03:46:42;99076.06;;;10.04;91.47
13719;BME280;6931;51.100;17.068;2024-03-23T03:49:08;99099.78;;;10.39;90.75
13719;BME280;6931;51.100;17.068;2024-03-23T03:51:34;99097.41;;;10.14;91.57
13719;BME280;6931;51.100;17.068;2024-03-23T03:54:00;99085.69;;;10.26;91.33
13719;BME280;6931;51.100;17.068;2024-03-23T03:56:25;99080.00;;;10.33;90.40
13719;BME280;6931;51.100;17.068;2024-03-23T03:58:51;98979.28;;;9.69;89.58
13719;BME280;6931;51.100;17.068;2024-03-23T04:01:16;99053.84;;;10.27;90.07
13719;BME280;6931;51.100;17.068;2024-03-23T04:03:43;99076.25;;;10.44;90.21
13719;BME280;6931;51.100;17.068;2024-03-23T04:06:09;99069.25;;;10.32;90.96
13719;BME280;6931;51.100;17.068;2024-03-23T04:08:35;99053.97;;;10.20;91.28
13719;BME280;6931;51.100;17.068;2024-03-23T04:11:01;99064.50;;;10.32;91.80
13719;BME280;6931;51.100;17.068;2024-03-23T04:13:27;99076.00;;;10.34;91.62
13719;BME280;6931;51.100;17.068;2024-03-23T04:15:56;99081.56;;;10.34;92.66
13719;BME280;6931;51.100;17.068;2024-03-23T04:18:22;99078.41;;;10.32;92.42
13719;BME280;6931;51.100;17.068;2024-03-23T04:20:48;99063.97;;;10.18;92.07
13719;BME280;6931;51.100;17.068;2024-03-23T04:23:14;99081.69;;;10.27;91.08
13719;BME280;6931;51.100;17.068;2024-03-23T04:25:40;99054.59;;;10.05;91.38
13719;BME280;6931;51.100;17.068;2024-03-23T04:28:06;99073.63;;;10.10;91.34
13719;BME280;6931;51.100;17.068;2024-03-23T04:30:32;99079.91;;;10.14;91.29
13719;BME280;6931;51.100;17.068;2024-03-23T04:32:58;99062.09;;;10.08;90.83
13719;BME280;6931;51.100;17.068;2024-03-23T04:35:24;99052.81;;;9.91;90.98
13719;BME280;6931;51.100;17.068;2024-03-23T04:37:53;99074.19;;;9.98;91.82
13719;BME280;6931;51.100;17.068;2024-03-23T04:40:19;99078.00;;;10.07;91.97
13719;BME280;6931;51.100;17.068;2024-03-23T04:42:45;99072.38;;;10.14;91.04
13719;BME280;6931;51.100;17.068;2024-03-23T04:45:10;99083.59;;;10.07;91.44
13719;BME280;6931;51.100;17.068;2024-03-23T04:47:40;99066.56;;;10.02;91.60
13719;BME280;6931;51.100;17.068;2024-03-23T04:50:06;99063.38;;;10.03;91.44
13719;BME280;6931;51.100;17.068;2024-03-23T04:52:31;99075.66;;;10.06;90.84
13719;BME280;6931;51.100;17.068;2024-03-23T04:54:57;99068.06;;;10.10;91.40
13719;BME280;6931;51.100;17.068;2024-03-23T04:57:23;99064.41;;;10.13;91.47
13719;BME280;6931;51.100;17.068;2024-03-23T04:59:49;99058.03;;;10.16;90.48
13719;BME280;6931;51.100;17.068;2024-03-23T05:02:14;99026.44;;;9.99;91.05
13719;BME280;6931;51.100;17.068;2024-03-23T05:04:40;99053.38;;;10.09;91.53
13719;BME280;6931;51.100;17.068;2024-03-23T05:07:06;99046.22;;;10.08;91.58
13719;BME280;6931;51.100;17.068;2024-03-23T05:09:32;99028.22;;;9.90;91.29
13719;BME280;6931;51.100;17.068;2024-03-23T05:12:01;99048.16;;;10.11;91.10
13719;BME280;6931;51.100;17.068;2024-03-23T05:14:27;99018.41;;;10.05;90.02
13719;BME280;6931;51.100;17.068;2024-03-23T05:16:53;99035.81;;;10.12;90.47
13719;BME280;6931;51.100;17.068;2024-03-23T05:19:19;99038.19;;;10.14;91.01
13719;BME280;6931;51.100;17.068;2024-03-23T05:21:44;99044.94;;;10.13;90.85
13719;BME280;6931;51.100;17.068;2024-03-23T05:24:11;99046.59;;;10.10;91.69
13719;BME280;6931;51.100;17.068;2024-03-23T05:26:38;99016.97;;;9.97;90.95
13719;BME280;6931;51.100;17.068;2024-03-23T05:29:03;99042.56;;;10.11;91.04
13719;BME280;6931;51.100;17.068;2024-03-23T05:31:31;99038.25;;;10.07;91.40
13719;BME280;6931;51.100;17.068;2024-03-23T05:33:57;99036.69;;;10.06;92.48
13719;BME280;6931;51.100;17.068;2024-03-23T05:36:23;99029.19;;;10.03;92.91
13719;BME280;6931;51.100;17.068;2024-03-23T05:38:51;99029.13;;;10.06;92.91
13719;BME280;6931;51.100;17.068;2024-03-23T05:41:17;99025.06;;;10.14;92.37
13719;BME280;6931;51.100;17.068;2024-03-23T05:43:43;99031.53;;;10.04;92.80
13719;BME280;6931;51.100;17.068;2024-03-23T05:46:08;99018.97;;;9.96;93.05
13719;BME280;6931;51.100;17.068;2024-03-23T05:48:34;99014.25;;;10.16;92.26
13719;BME280;6931;51.100;17.068;2024-03-23T05:51:00;99020.31;;;10.11;92.35
13719;BME280;6931;51.100;17.068;2024-03-23T05:53:27;98986.19;;;10.07;91.85
13719;BME280;6931;51.100;17.068;2024-03-23T05:56:00;98913.50;;;9.59;91.55
13719;BME280;6931;51.100;17.068;2024-03-23T05:58:29;98998.16;;;10.04;91.55
13719;BME280;6931;51.100;17.068;2024-03-23T06:00:59;98976.84;;;9.94;91.38
13719;BME280;6931;51.100;17.068;2024-03-23T06:03:29;98999.03;;;10.24;89.62
13719;BME280;6931;51.100;17.068;2024-03-23T06:05:55;98991.84;;;10.47;88.89
13719;BME280;6931;51.100;17.068;2024-03-23T06:08:22;98959.81;;;10.38;89.48
13719;BME280;6931;51.100;17.068;2024-03-23T06:10:48;98983.38;;;10.54;90.04
13719;BME280;6931;51.100;17.068;2024-03-23T06:13:14;98990.44;;;10.58;90.22
13719;BME280;6931;51.100;17.068;2024-03-23T06:15:40;99007.94;;;10.59;90.57
13719;BME280;6931;51.100;17.068;2024-03-23T06:18:05;99006.66;;;10.63;90.50
13719;BME280;6931;51.100;17.068;2024-03-23T06:20:33;99008.09;;;10.71;89.54
13719;BME280;6931;51.100;17.068;2024-03-23T06:23:00;99007.16;;;10.78;89.47
13719;BME280;6931;51.100;17.068;2024-03-23T06:25:25;99020.38;;;10.74;88.98
13719;BME280;6931;51.100;17.068;2024-03-23T06:27:51;99026.88;;;10.67;89.24
13719;BME280;6931;51.100;17.068;2024-03-23T06:30:17;99022.88;;;10.68;89.64
13719;BME280;6931;51.100;17.068;2024-03-23T06:32:42;99015.75;;;10.87;88.98
13719;BME280;6931;51.100;17.068;2024-03-23T06:35:08;98995.38;;;10.90;88.77
13719;BME280;6931;51.100;17.068;2024-03-23T06:37:37;98963.09;;;10.73;88.63
13719;BME280;6931;51.100;17.068;2024-03-23T06:40:05;98966.94;;;10.79;89.44
13719;BME280;6931;51.100;17.068;2024-03-23T06:42:33;98960.81;;;10.87;89.52
13719;BME280;6931;51.100;17.068;2024-03-23T06:45:01;98954.44;;;10.87;89.89
13719;BME280;6931;51.100;17.068;2024-03-23T06:47:26;98952.94;;;10.82;90.07
13719;BME280;6931;51.100;17.068;2024-03-23T06:49:52;98954.59;;;10.80;90.41
13719;BME280;6931;51.100;17.068;2024-03-23T06:52:17;98953.44;;;10.77;90.99
13719;BME280;6931;51.100;17.068;2024-03-23T06:54:43;98953.72;;;10.83;90.44
13719;BME280;6931;51.100;17.068;2024-03-23T06:57:11;98955.56;;;10.89;90.48
13719;BME280;6931;51.100;17.068;2024-03-23T06:59:38;98953.44;;;10.97;90.64
13719;BME280;6931;51.100;17.068;2024-03-23T07:02:05;98954.50;;;11.03;90.14
13719;BME280;6931;51.100;17.068;2024-03-23T07:04:31;98746.59;;;9.82;89.65
13719;BME280;6931;51.100;17.068;2024-03-23T07:06:56;98937.28;;;11.24;89.10
13719;BME280;6931;51.100;17.068;2024-03-23T07:09:22;98933.13;;;11.32;88.34
13719;BME280;6931;51.100;17.068;2024-03-23T07:11:53;98892.59;;;11.27;88.67
13719;BME280;6931;51.100;17.068;2024-03-23T07:14:19;98913.03;;;11.57;87.66
13719;BME280;6931;51.100;17.068;2024-03-23T07:16:45;98912.47;;;11.65;86.71
13719;BME280;6931;51.100;17.068;2024-03-23T07:19:11;98881.66;;;11.52;86.08
13719;BME280;6931;51.100;17.068;2024-03-23T07:21:36;98895.31;;;11.79;84.49
13719;BME280;6931;51.100;17.068;2024-03-23T07:24:03;98894.88;;;11.97;83.67
13719;BME280;6931;51.100;17.068;2024-03-23T07:26:28;98872.91;;;11.99;83.19
13719;BME280;6931;51.100;17.068;2024-03-23T07:28:54;98882.44;;;12.14;82.64
13719;BME280;6931;51.100;17.068;2024-03-23T07:31:20;98881.03;;;12.22;82.39
13719;BME280;6931;51.100;17.068;2024-03-23T07:33:47;98888.94;;;12.39;80.31
13719;BME280;6931;51.100;17.068;2024-03-23T07:36:13;98875.31;;;12.41;78.70
13719;BME280;6931;51.100;17.068;2024-03-23T07:38:45;98838.31;;;12.37;78.83
13719;BME280;6931;51.100;17.068;2024-03-23T07:41:14;98868.53;;;12.67;78.43
13719;BME280;6931;51.100;17.068;2024-03-23T07:43:40;98865.13;;;12.89;78.52
13719;BME280;6931;51.100;17.068;2024-03-23T07:46:06;98852.31;;;13.04;78.12
13719;BME280;6931;51.100;17.068;2024-03-23T07:48:32;98853.66;;;13.24;76.82
13719;BME280;6931;51.100;17.068;2024-03-23T07:51:02;98852.16;;;13.45;75.67
13719;BME280;6931;51.100;17.068;2024-03-23T07:53:28;98822.84;;;13.37;74.06
13719;BME280;6931;51.100;17.068;2024-03-23T07:56:15;98829.16;;;13.75;73.50
13719;BME280;6931;51.100;17.068;2024-03-23T07:58:41;98818.94;;;13.81;71.94
13719;BME280;6931;51.100;17.068;2024-03-23T08:01:09;98801.09;;;13.66;72.83
13719;BME280;6931;51.100;17.068;2024-03-23T08:03:38;98789.97;;;13.75;73.31
13719;BME280;6931;51.100;17.068;2024-03-23T08:08:40;98770.81;;;14.08;72.10
13719;BME280;6931;51.100;17.068;2024-03-23T08:11:06;98795.81;;;14.02;73.01
13719;BME280;6931;51.100;17.068;2024-03-23T08:13:33;98805.97;;;14.30;73.03
13719;BME280;6931;51.100;17.068;2024-03-23T08:16:00;98771.19;;;13.97;71.69
13719;BME280;6931;51.100;17.068;2024-03-23T08:18:26;98771.91;;;14.10;70.79
13719;BME280;6931;51.100;17.068;2024-03-23T08:20:59;98787.09;;;14.43;71.35
13719;BME280;6931;51.100;17.068;2024-03-23T08:23:26;98781.34;;;14.04;69.72
13719;BME280;6931;51.100;17.068;2024-03-23T08:25:57;98780.97;;;14.36;69.45
13719;BME280;6931;51.100;17.068;2024-03-23T08:28:23;98776.66;;;14.44;69.00
13719;BME280;6931;51.100;17.068;2024-03-23T08:30:49;98728.94;;;14.04;67.60
13719;BME280;6931;51.100;17.068;2024-03-23T08:33:15;98752.59;;;14.55;68.53
13719;BME280;6931;51.100;17.068;2024-03-23T08:35:41;98744.09;;;14.68;69.34
13719;BME280;6931;51.100;17.068;2024-03-23T08:38:07;98727.13;;;14.41;68.67
13719;BME280;6931;51.100;17.068;2024-03-23T08:40:33;98731.28;;;14.58;67.45
13719;BME280;6931;51.100;17.068;2024-03-23T08:42:58;98739.22;;;14.99;66.73
13719;BME280;6931;51.100;17.068;2024-03-23T08:45:25;98733.78;;;15.14;66.64
13719;BME280;6931;51.100;17.068;2024-03-23T08:47:51;98682.50;;;14.95;67.75
13719;BME280;6931;51.100;17.068;2024-03-23T08:50:17;98709.97;;;15.36;67.58
13719;BME280;6931;51.100;17.068;2024-03-23T08:52:44;98693.59;;;15.08;67.96
13719;BME280;6931;51.100;17.068;2024-03-23T08:55:10;98685.19;;;15.17;68.37
13719;BME280;6931;51.100;17.068;2024-03-23T08:57:35;98708.84;;;15.07;68.13
13719;BME280;6931;51.100;17.068;2024-03-23T09:00:02;98689.69;;;14.56;67.49
13719;BME280;6931;51.100;17.068;2024-03-23T09:02:28;98705.97;;;14.79;67.79
13719;BME280;6931;51.100;17.068;2024-03-23T09:04:54;98704.13;;;14.94;67.54
13719;BME280;6931;51.100;17.068;2024-03-23T09:07:19;98686.13;;;14.65;68.23
13719;BME280;6931;51.100;17.068;2024-03-23T09:09:45;98664.47;;;14.56;68.65
13719;BME280;6931;51.100;17.068;2024-03-23T09:12:11;98671.97;;;14.59;67.66
13719;BME280;6931;51.100;17.068;2024-03-23T09:14:36;98666.69;;;14.31;67.81
13719;BME280;6931;51.100;17.068;2024-03-23T09:17:02;98637.81;;;14.12;68.28
13719;BME280;6931;51.100;17.068;2024-03-23T09:19:29;98654.69;;;14.30;68.86
13719;BME280;6931;51.100;17.068;2024-03-23T09:21:55;98646.75;;;14.29;69.03
13719;BME280;6931;51.100;17.068;2024-03-23T09:24:21;98640.41;;;14.28;69.09
13719;BME280;6931;51.100;17.068;2024-03-23T09:26:47;98628.19;;;14.22;68.98
13719;BME280;6931;51.100;17.068;2024-03-23T09:29:12;98639.00;;;14.33;70.00
13719;BME280;6931;51.100;17.068;2024-03-23T09:31:39;98630.63;;;14.11;69.75
13719;BME280;6931;51.100;17.068;2024-03-23T09:34:06;98626.09;;;14.05;70.22
13719;BME280;6931;51.100;17.068;2024-03-23T09:36:31;98622.81;;;13.97;70.08
13719;BME280;6931;51.100;17.068;2024-03-23T09:38:57;98623.00;;;14.12;69.91
13719;BME280;6931;51.100;17.068;2024-03-23T09:41:23;98596.69;;;14.00;68.40
13719;BME280;6931;51.100;17.068;2024-03-23T09:43:52;98601.00;;;14.71;67.77
13719;BME280;6931;51.100;17.068;2024-03-23T09:46:19;98586.69;;;15.15;67.24
13719;BME280;6931;51.100;17.068;2024-03-23T09:48:46;98579.00;;;15.78;65.31
13719;BME280;6931;51.100;17.068;2024-03-23T09:51:12;98565.75;;;15.70;64.57
13719;BME280;6931;51.100;17.068;2024-03-23T09:53:38;98579.19;;;15.66;65.42
13719;BME280;6931;51.100;17.068;2024-03-23T09:56:04;98541.53;;;15.81;64.99
13719;BME280;6931;51.100;17.068;2024-03-23T09:58:30;98568.66;;;15.93;64.71
13719;BME280;6931;51.100;17.068;2024-03-23T10:00:58;98567.69;;;15.55;65.06
13719;BME280;6931;51.100;17.068;2024-03-23T10:03:24;98553.88;;;15.84;65.39
13719;BME280;6931;51.100;17.068;2024-03-23T10:06:00;98551.63;;;15.97;64.90
13719;BME280;6931;51.100;17.068;2024-03-23T10:08:28;98550.34;;;16.40;63.42
13719;BME280;6931;51.100;17.068;2024-03-23T10:10:54;98507.31;;;16.25;63.33
13719;BME280;6931;51.100;17.068;2024-03-23T10:13:24;98539.25;;;16.69;62.63
13719;BME280;6931;51.100;17.068;2024-03-23T10:15:55;98524.06;;;17.13;61.78
13719;BME280;6931;51.100;17.068;2024-03-23T10:18:21;98518.53;;;17.34;61.78
13719;BME280;6931;51.100;17.068;2024-03-23T10:21:08;98515.13;;;17.15;61.75
13719;BME280;6931;51.100;17.068;2024-03-23T10:23:39;98501.34;;;16.32;61.53
13719;BME280;6931;51.100;17.068;2024-03-23T10:29:00;98485.25;;;17.17;60.14
13719;BME280;6931;51.100;17.068;2024-03-23T10:31:30;98514.03;;;17.65;58.38
13719;BME280;6931;51.100;17.068;2024-03-23T10:33:57;98490.34;;;18.06;59.53
13719;BME280;6931;51.100;17.068;2024-03-23T10:36:24;98448.06;;;17.43;59.66
13719;BME280;6931;51.100;17.068;2024-03-23T10:38:51;98503.44;;;17.75;58.12
13719;BME280;6931;51.100;17.068;2024-03-23T10:41:18;98502.34;;;17.14;59.36
13719;BME280;6931;51.100;17.068;2024-03-23T10:43:48;98495.69;;;17.55;60.00
13719;BME280;6931;51.100;17.068;2024-03-23T10:46:14;98492.13;;;17.02;61.27
13719;BME280;6931;51.100;17.068;2024-03-23T10:48:41;98493.63;;;16.88;60.46
13719;BME280;6931;51.100;17.068;2024-03-23T10:51:09;98484.94;;;17.01;61.37
13719;BME280;6931;51.100;17.068;2024-03-23T10:53:35;98476.75;;;16.88;62.27
13719;BME280;6931;51.100;17.068;2024-03-23T10:56:03;98481.63;;;16.88;60.46
13719;BME280;6931;51.100;17.068;2024-03-23T10:58:32;98469.28;;;16.85;60.48
13719;BME280;6931;51.100;17.068;2024-03-23T11:01:00;98459.13;;;16.88;60.65
13719;BME280;6931;51.100;17.068;2024-03-23T11:03:32;98446.66;;;16.80;59.81
13719;BME280;6931;51.100;17.068;2024-03-23T11:05:59;98454.69;;;17.10;60.30
13719;BME280;6931;51.100;17.068;2024-03-23T11:08:45;98448.47;;;17.21;60.27
13719;BME280;6931;51.100;17.068;2024-03-23T11:11:16;98419.25;;;17.18;59.74
13719;BME280;6931;51.100;17.068;2024-03-23T11:13:42;98447.50;;;17.68;59.77
13719;BME280;6931;51.100;17.068;2024-03-23T11:16:13;98441.22;;;17.93;57.63
13719;BME280;6931;51.100;17.068;2024-03-23T11:18:40;98436.53;;;17.41;58.47
13719;BME280;6931;51.100;17.068;2024-03-23T11:21:09;98445.56;;;17.45;57.93
13719;BME280;6931;51.100;17.068;2024-03-23T11:23:35;98431.94;;;17.87;57.96
13719;BME280;6931;51.100;17.068;2024-03-23T11:26:00;98416.88;;;18.10;56.98
13719;BME280;6931;51.100;17.068;2024-03-23T11:28:26;98427.72;;;17.97;55.27
13719;BME280;6931;51.100;17.068;2024-03-23T11:30:52;98426.09;;;17.90;54.64
13719;BME280;6931;51.100;17.068;2024-03-23T11:33:19;98386.41;;;17.94;54.61
13719;BME280;6931;51.100;17.068;2024-03-23T11:35:44;98419.91;;;17.72;54.15
13719;BME280;6931;51.100;17.068;2024-03-23T11:40:41;98395.97;;;17.82;56.09
13719;BME280;6931;51.100;17.068;2024-03-23T11:43:08;98388.84;;;17.66;56.56
13719;BME280;6931;51.100;17.068;2024-03-23T11:45:39;98390.50;;;17.58;54.66
13719;BME280;6931;51.100;17.068;2024-03-23T11:48:07;98389.44;;;17.41;54.23
13719;BME280;6931;51.100;17.068;2024-03-23T11:50:37;98379.19;;;17.24;53.77
13719;BME280;6931;51.100;17.068;2024-03-23T11:53:25;98367.34;;;17.19;54.49
13719;BME280;6931;51.100;17.068;2024-03-23T11:58:20;98397.03;;;17.06;54.43
13719;BME280;6931;51.100;17.068;2024-03-23T12:03:19;98405.19;;;17.04;53.39
13719;BME280;6931;51.100;17.068;2024-03-23T12:05:52;98405.38;;;16.86;53.38
13719;BME280;6931;51.100;17.068;2024-03-23T12:08:25;98433.28;;;16.75;53.67
13719;BME280;6931;51.100;17.068;2024-03-23T12:11:13;98439.72;;;16.04;60.18
13719;BME280;6931;51.100;17.068;2024-03-23T12:13:40;98420.44;;;17.12;58.28
13719;BME280;6931;51.100;17.068;2024-03-23T12:16:12;98425.47;;;17.08;57.70
13719;BME280;6931;51.100;17.068;2024-03-23T12:18:41;98430.22;;;17.16;57.38
13719;BME280;6931;51.100;17.068;2024-03-23T12:21:07;98412.97;;;17.38;56.68
13719;BME280;6931;51.100;17.068;2024-03-23T12:23:34;98408.66;;;17.43;54.07
13719;BME280;6931;51.100;17.068;2024-03-23T12:26:00;98414.03;;;17.55;51.71
13719;BME280;6931;51.100;17.068;2024-03-23T12:28:26;98397.22;;;17.32;52.08
13719;BME280;6931;51.100;17.068;2024-03-23T12:30:52;98418.72;;;17.78;51.80
13719;BME280;6931;51.100;17.068;2024-03-23T12:33:20;98436.75;;;17.52;51.23
13719;BME280;6931;51.100;17.068;2024-03-23T12:35:45;98428.66;;;17.59;51.53
13719;BME280;6931;51.100;17.068;2024-03-23T12:38:11;98420.00;;;17.77;51.30
13719;BME280;6931;51.100;17.068;2024-03-23T12:40:37;98415.56;;;17.56;51.66
13719;BME280;6931;51.100;17.068;2024-03-23T12:43:02;98391.00;;;17.42;51.32
13719;BME280;6931;51.100;17.068;2024-03-23T12:45:28;98396.38;;;17.26;51.30
13719;BME280;6931;51.100;17.068;2024-03-23T12:47:54;98429.06;;;17.08;51.71
13719;BME280;6931;51.100;17.068;2024-03-23T12:50:20;98428.84;;;17.41;52.22
13719;BME280;6931;51.100;17.068;2024-03-23T12:52:46;98436.16;;;17.33;51.25
13719;BME280;6931;51.100;17.068;2024-03-23T12:55:12;98412.66;;;17.22;51.60
13719;BME280;6931;51.100;17.068;2024-03-23T12:57:37;98420.81;;;17.05;51.71
13719;BME280;6931;51.100;17.068;2024-03-23T13:00:04;98444.97;;;17.11;52.84
13719;BME280;6931;51.100;17.068;2024-03-23T13:02:30;98449.03;;;16.96;51.31
13719;BME280;6931;51.100;17.068;2024-03-23T13:04:56;98445.63;;;16.92;51.71
13719;BME280;6931;51.100;17.068;2024-03-23T13:07:22;98452.00;;;16.78;52.97
13719;BME280;6931;51.100;17.068;2024-03-23T13:09:52;98506.91;;;16.50;53.73
13719;BME280;6931;51.100;17.068;2024-03-23T13:12:21;98488.97;;;15.40;59.08
13719;BME280;6931;51.100;17.068;2024-03-23T13:14:47;98565.34;;;15.44;58.74
13719;BME280;6931;51.100;17.068;2024-03-23T13:17:13;98557.81;;;14.51;59.78
13719;BME280;6931;51.100;17.068;2024-03-23T13:19:39;98554.66;;;14.31;61.83
13719;BME280;6931;51.100;17.068;2024-03-23T13:22:05;98570.03;;;13.87;63.94
13719;BME280;6931;51.100;17.068;2024-03-23T13:24:31;98548.84;;;13.86;64.69
13719;BME280;6931;51.100;17.068;2024-03-23T13:26:57;98552.00;;;13.35;66.55
13719;BME280;6931;51.100;17.068;2024-03-23T13:29:24;98586.53;;;13.41;67.31
13719;BME280;6931;51.100;17.068;2024-03-23T13:31:51;98553.16;;;13.25;67.92
13719;BME280;6931;51.100;17.068;2024-03-23T13:34:17;98577.09;;;13.05;68.96
13719;BME280;6931;51.100;17.068;2024-03-23T13:36:46;98567.16;;;12.91;69.39
13719;BME280;6931;51.100;17.068;2024-03-23T13:39:13;98593.38;;;12.72;69.48
13719;BME280;6931;51.100;17.068;2024-03-23T13:41:45;98604.72;;;12.90;67.27
13719;BME280;6931;51.100;17.068;2024-03-23T13:44:12;98618.69;;;12.90;65.65
13719;BME280;6931;51.100;17.068;2024-03-23T13:46:40;98609.06;;;13.38;64.57
13719;BME280;6931;51.100;17.068;2024-03-23T13:49:06;98584.56;;;12.74;65.55
13719;BME280;6931;51.100;17.068;2024-03-23T13:51:32;98643.56;;;12.76;67.27
13719;BME280;6931;51.100;17.068;2024-03-23T13:53:58;98627.28;;;12.36;67.72
13719;BME280;6931;51.100;17.068;2024-03-23T13:56:27;98674.19;;;11.91;70.91
13719;BME280;6931;51.100;17.068;2024-03-23T13:58:57;98686.31;;;11.56;70.92
13719;BME280;6931;51.100;17.068;2024-03-23T14:01:23;98670.69;;;11.58;71.33
13719;BME280;6931;51.100;17.068;2024-03-23T14:03:50;98717.44;;;11.54;72.32